Time;durP1;ratioP1;P1;durP2;ratioP2;P2;SDS_P1;SDS_P2;PMS_P1;PMS_P2;Temp;Humidity;BMP_temperature;BMP_pressure;BME280_temperature;BME280_humidity;BME280_pressure;Samples;Min_cycle;Max_cycle;Signal;HPM_P1;HPM_P2
2022/07/26 00:01:18;;;;;;;6.57;2.70;;;;;;;19.17;64.47;101241.75;4974444;28;20039;-85
2022/07/26 00:03:44;;;;;;;8.27;2.70;;;;;;;19.21;64.26;101246.13;4974702;28;20102;-84
2022/07/26 00:06:09;;;;;;;9.45;2.80;;;;;;;19.19;64.41;101247.09;4974567;28;20050;-84
2022/07/26 00:08:35;;;;;;;8.18;2.75;;;;;;;19.14;64.86;101257.91;4973496;28;20035;-84
2022/07/26 00:11:00;;;;;;;12.48;2.78;;;;;;;19.14;64.75;101254.31;4974398;28;20470;-84
2022/07/26 00:13:26;;;;;;;7.90;2.72;;;;;;;19.13;64.71;101257.91;4974349;28;20027;-85
2022/07/26 00:15:52;;;;;;;9.98;2.75;;;;;;;19.13;65.08;101252.53;4974457;28;20049;-86
2022/07/26 00:18:18;;;;;;;9.85;2.63;;;;;;;19.10;65.06;101241.88;4973289;28;20038;-84
2022/07/26 00:20:44;;;;;;;9.30;2.58;;;;;;;19.09;65.41;101256.19;4974345;28;20034;-84
2022/07/26 00:23:10;;;;;;;13.73;2.70;;;;;;;18.96;65.59;101223.38;4974550;28;20374;-84
2022/07/26 00:25:35;;;;;;;8.85;2.85;;;;;;;18.99;65.73;101253.66;4974486;28;20035;-84
2022/07/26 00:28:00;;;;;;;8.10;2.40;;;;;;;18.93;65.38;101239.53;4974239;28;20467;-85
2022/07/26 00:30:26;;;;;;;10.07;2.75;;;;;;;19.02;65.92;101247.41;4973044;28;20031;-84
2022/07/26 00:32:51;;;;;;;8.05;2.88;;;;;;;18.96;65.99;101253.72;4974546;28;20068;-83
2022/07/26 00:35:18;;;;;;;9.82;2.70;;;;;;;18.97;65.92;101257.28;4973033;28;20026;-84
2022/07/26 00:37:43;;;;;;;8.70;2.50;;;;;;;18.92;65.87;101261.84;4973314;28;20066;-85
2022/07/26 00:40:09;;;;;;;9.35;2.65;;;;;;;18.84;66.39;101255.72;4974100;28;20110;-84
2022/07/26 00:42:35;;;;;;;8.68;2.50;;;;;;;18.86;66.15;101259.28;4976013;28;20364;-84
2022/07/26 00:45:01;;;;;;;7.07;2.70;;;;;;;18.87;66.05;101253.88;4975796;28;20029;-84
2022/07/26 00:47:26;;;;;;;9.00;2.80;;;;;;;18.91;66.30;101265.44;4975342;28;20059;-85
2022/07/26 00:49:51;;;;;;;8.02;2.53;;;;;;;18.82;66.34;101249.53;4975576;28;20033;-84
2022/07/26 00:52:17;;;;;;;6.43;2.17;;;;;;;18.88;66.08;101265.47;4975117;28;20034;-84
2022/07/26 00:54:44;;;;;;;9.75;2.40;;;;;;;18.87;66.55;101263.72;4974560;28;20428;-84
2022/07/26 00:57:11;;;;;;;6.30;2.30;;;;;;;18.85;66.49;101261.06;4973958;28;20031;-84
2022/07/26 00:59:36;;;;;;;8.63;2.75;;;;;;;18.88;66.11;101258.31;4973841;28;20093;-85
2022/07/26 01:02:04;;;;;;;11.65;2.78;;;;;;;18.89;66.14;101252.06;4974476;28;20426;-84
2022/07/26 01:04:29;;;;;;;7.07;2.30;;;;;;;18.85;66.02;101249.47;4974477;28;20089;-85
2022/07/26 01:06:55;;;;;;;8.80;2.53;;;;;;;18.73;66.26;101226.47;4973954;28;20030;-84
2022/07/26 01:09:21;;;;;;;7.28;2.83;;;;;;;18.69;66.20;101222.03;4974908;28;20023;-84
2022/07/26 01:11:46;;;;;;;7.45;2.30;;;;;;;18.91;66.00;101247.56;4977462;28;20178;-84
2022/07/26 01:14:12;;;;;;;9.73;2.60;;;;;;;18.84;66.73;101245.00;4977277;28;20034;-84
2022/07/26 01:16:38;;;;;;;8.13;2.50;;;;;;;18.81;66.77;101242.41;4977650;28;20031;-84
2022/07/26 01:19:03;;;;;;;11.38;2.85;;;;;;;18.72;66.83;101238.97;4977318;28;20035;-84
2022/07/26 01:21:29;;;;;;;8.27;2.42;;;;;;;18.75;66.83;101240.69;4977293;28;20054;-84
2022/07/26 01:23:55;;;;;;;10.35;2.42;;;;;;;18.71;67.42;101237.22;4977375;28;20030;-84
2022/07/26 01:26:21;;;;;;;11.20;3.03;;;;;;;18.82;67.42;101250.41;4977277;28;20117;-84
2022/07/26 01:28:48;;;;;;;9.32;3.10;;;;;;;18.73;67.67;101245.22;4977113;28;20035;-85
2022/07/26 01:31:14;;;;;;;8.90;2.80;;;;;;;18.73;67.77;101242.53;4977343;28;20046;-84
2022/07/26 01:33:40;;;;;;;6.88;2.60;;;;;;;18.61;68.15;101235.53;4976001;28;20471;-84
2022/07/26 01:36:07;;;;;;;8.10;2.78;;;;;;;18.73;67.93;101245.22;4977058;28;20382;-84
2022/07/26 01:38:33;;;;;;;11.00;2.92;;;;;;;18.71;68.21;101233.63;4977010;28;20031;-84
2022/07/26 01:40:58;;;;;;;10.45;3.03;;;;;;;18.66;67.71;101228.31;4977056;28;20113;-84
2022/07/26 01:43:23;;;;;;;14.13;3.13;;;;;;;18.71;67.98;101237.22;4975670;28;20033;-84
2022/07/26 01:45:49;;;;;;;11.73;2.88;;;;;;;18.83;68.40;101249.47;4977051;28;20043;-84
2022/07/26 01:48:14;;;;;;;10.77;2.90;;;;;;;18.87;68.21;101250.31;4976946;28;20054;-84
2022/07/26 01:50:40;;;;;;;11.38;3.03;;;;;;;18.96;67.91;101247.47;4976485;28;20501;-84
2022/07/26 01:53:05;;;;;;;9.77;2.70;;;;;;;19.01;67.70;101261.66;4977060;28;20035;-85
2022/07/26 01:55:31;;;;;;;12.95;2.80;;;;;;;18.97;67.85;101257.28;4975912;28;20486;-84
2022/07/26 01:57:56;;;;;;;10.20;3.05;;;;;;;18.87;67.76;101243.16;4976384;28;20030;-84
2022/07/26 02:00:21;;;;;;;9.07;3.10;;;;;;;18.95;68.53;101259.13;4975385;28;20034;-84
2022/07/26 02:02:47;;;;;;;11.50;3.00;;;;;;;18.91;68.83;101260.94;4976536;28;20033;-84
2022/07/26 02:05:13;;;;;;;14.05;3.30;;;;;;;18.89;68.45;101259.22;4977564;28;20029;-86
2022/07/26 02:07:41;;;;;;;8.63;2.95;;;;;;;18.68;69.39;101242.56;4976863;28;20101;-83
2022/07/26 02:10:08;;;;;;;10.55;2.97;;;;;;;18.76;69.75;101258.56;4976482;28;20370;-83
2022/07/26 02:12:34;;;;;;;9.35;3.17;;;;;;;18.72;69.52;101247.00;4976305;28;20023;-84
2022/07/26 02:14:59;;;;;;;12.63;3.30;;;;;;;18.74;69.85;101255.88;4976564;28;20447;-83
2022/07/26 02:17:25;;;;;;;8.30;3.35;;;;;;;18.81;68.84;101251.31;4976500;28;20041;-83
2022/07/26 02:19:51;;;;;;;11.18;3.25;;;;;;;18.82;69.62;101263.78;4976651;28;20058;-83
2022/07/26 02:22:18;;;;;;;15.95;3.67;;;;;;;18.88;69.58;101260.13;4975236;28;20035;-84
2022/07/26 02:24:45;;;;;;;13.57;3.60;;;;;;;18.77;69.77;101242.44;4976136;28;20442;-84
2022/07/26 02:27:10;;;;;;;12.02;3.40;;;;;;;18.82;69.77;101246.84;4974902;28;20031;-84
2022/07/26 02:29:35;;;;;;;9.90;3.40;;;;;;;18.87;69.86;101259.25;4975030;28;20042;-84
2022/07/26 02:32:01;;;;;;;13.15;3.53;;;;;;;18.77;69.68;101257.63;4976302;28;20029;-83
2022/07/26 02:34:26;;;;;;;11.38;3.42;;;;;;;18.87;69.70;101261.03;4974651;28;20506;-83
2022/07/26 02:36:52;;;;;;;12.85;3.72;;;;;;;18.82;70.20;101269.16;4976111;28;20035;-83
2022/07/26 02:39:18;;;;;;;10.02;3.72;;;;;;;18.77;70.58;101271.91;4974668;28;20449;-83
2022/07/26 02:41:43;;;;;;;11.68;3.65;;;;;;;18.85;70.57;101268.22;4975682;28;20122;-83
2022/07/26 02:44:09;;;;;;;16.30;4.10;;;;;;;18.85;70.26;101277.13;4975987;28;20062;-84
2022/07/26 02:46:34;;;;;;;11.55;3.78;;;;;;;18.83;70.14;101267.34;4975649;28;20036;-83
2022/07/26 02:48:59;;;;;;;11.32;4.05;;;;;;;18.85;70.13;101270.91;4974774;28;20060;-84
2022/07/26 02:51:26;;;;;;;15.10;3.92;;;;;;;18.86;70.55;101276.22;4974237;28;20085;-84
2022/07/26 02:53:52;;;;;;;15.95;4.32;;;;;;;18.84;70.59;101275.34;4975768;28;20031;-84
2022/07/26 02:56:18;;;;;;;12.25;4.05;;;;;;;18.72;70.83;101265.75;4975465;28;20023;-85
2022/07/26 02:58:44;;;;;;;12.80;4.18;;;;;;;18.80;71.39;101280.78;4975455;28;20031;-84
2022/07/26 03:01:09;;;;;;;16.10;4.50;;;;;;;18.75;71.10;101279.06;4975679;28;20084;-84
2022/07/26 03:03:35;;;;;;;12.32;4.00;;;;;;;18.68;71.64;101268.47;4974356;28;20027;-84
2022/07/26 03:06:00;;;;;;;12.25;4.00;;;;;;;18.67;71.67;101269.34;4974210;28;20038;-84
2022/07/26 03:08:26;;;;;;;16.40;4.43;;;;;;;18.76;71.95;101288.00;4975277;28;20054;-84
2022/07/26 03:10:51;;;;;;;19.67;4.18;;;;;;;18.75;71.59;101287.09;4974337;28;20038;-84
2022/07/26 03:13:17;;;;;;;14.27;3.92;;;;;;;18.60;71.69;101257.00;4975163;28;20034;-84
2022/07/26 03:15:42;;;;;;;19.58;4.47;;;;;;;18.73;71.83;101291.59;4974160;28;20027;-84
2022/07/26 03:18:07;;;;;;;15.90;4.35;;;;;;;18.76;71.84;101291.56;4975460;28;20081;-84
2022/07/26 03:20:33;;;;;;;17.10;4.40;;;;;;;18.72;72.36;101294.31;4975035;28;20031;-84
2022/07/26 03:22:58;;;;;;;17.08;4.43;;;;;;;18.71;72.26;101303.22;4974146;28;20166;-84
2022/07/26 03:25:23;;;;;;;13.18;4.10;;;;;;;18.64;72.81;101293.50;4975040;28;20042;-83
2022/07/26 03:27:49;;;;;;;15.77;4.50;;;;;;;18.59;72.60;101296.25;4975299;28;20031;-84
2022/07/26 03:30:14;;;;;;;18.80;4.70;;;;;;;18.55;72.96;101294.53;4975032;28;20038;-84
2022/07/26 03:32:40;;;;;;;19.55;4.50;;;;;;;18.61;73.20;101302.47;4975057;28;20106;-84
2022/07/26 03:35:06;;;;;;;16.33;4.65;;;;;;;18.57;73.06;101294.50;4975109;28;20155;-84
2022/07/26 03:37:32;;;;;;;14.15;4.10;;;;;;;18.66;73.06;101313.09;4974677;28;20070;-84
2022/07/26 03:39:57;;;;;;;15.02;4.30;;;;;;;18.71;72.54;101314.84;4974872;28;20158;-84
2022/07/26 03:42:23;;;;;;;14.02;4.38;;;;;;;18.65;73.36;101319.38;4974972;28;20401;-84
2022/07/26 03:44:48;;;;;;;14.50;4.50;;;;;;;18.66;73.16;101318.44;4975127;28;20027;-86
2022/07/26 03:47:13;;;;;;;14.60;4.50;;;;;;;18.61;73.42;101310.50;4973377;28;20093;-86
2022/07/26 03:49:39;;;;;;;20.10;4.55;;;;;;;18.68;73.29;101328.25;4975041;28;20089;-84
2022/07/26 03:52:04;;;;;;;12.63;4.10;;;;;;;18.51;73.36;101292.81;4973296;28;20043;-84
2022/07/26 03:54:30;;;;;;;20.55;4.75;;;;;;;18.62;73.32;101322.97;4974846;28;20088;-84
2022/07/26 03:56:55;;;;;;;17.17;4.57;;;;;;;18.51;73.32;101309.75;4974579;28;20104;-84
2022/07/26 03:59:22;;;;;;;14.10;4.50;;;;;;;18.56;73.76;101322.19;4974498;28;20035;-85
2022/07/26 04:01:49;;;;;;;15.60;4.55;;;;;;;18.58;73.47;101325.69;4974123;28;20165;-84
2022/07/26 04:04:16;;;;;;;14.82;4.60;;;;;;;18.56;74.25;101328.41;4974231;28;20050;-86
2022/07/26 04:06:42;;;;;;;15.10;4.43;;;;;;;18.53;73.93;101318.63;4974588;28;20495;-84
2022/07/26 04:09:07;;;;;;;12.18;4.05;;;;;;;18.61;73.56;101331.91;4973865;28;20085;-84
2022/07/26 04:11:33;;;;;;;14.48;4.40;;;;;;;18.56;73.92;101328.41;4974016;28;20487;-84
2022/07/26 04:13:59;;;;;;;15.27;5.03;;;;;;;18.63;73.98;101334.53;4972519;28;20030;-84
2022/07/26 04:16:25;;;;;;;17.25;4.53;;;;;;;18.57;74.03;101318.59;4974227;28;20030;-84
2022/07/26 04:18:51;;;;;;;11.07;3.97;;;;;;;18.66;74.04;101329.16;4974150;28;20093;-84
2022/07/26 04:21:17;;;;;;;16.60;4.70;;;;;;;18.57;74.25;101315.91;4972456;28;20058;-84
2022/07/26 04:23:42;;;;;;;15.20;4.43;;;;;;;18.60;74.12;101313.19;4972945;28;20055;-84
2022/07/26 04:26:08;;;;;;;19.38;4.80;;;;;;;18.71;74.20;101338.03;4972672;28;20033;-84
2022/07/26 04:28:33;;;;;;;17.63;4.57;;;;;;;18.71;73.93;101330.91;4974426;28;20035;-85
2022/07/26 04:30:59;;;;;;;18.30;4.57;;;;;;;18.72;74.21;101345.19;4972700;28;20447;-84
2022/07/26 04:33:25;;;;;;;17.20;4.82;;;;;;;18.59;74.39;101336.41;4974037;28;20030;-84
2022/07/26 04:35:52;;;;;;;18.67;4.53;;;;;;;18.64;74.42;101349.72;4974028;28;20109;-85
2022/07/26 04:38:18;;;;;;;18.08;4.35;;;;;;;18.65;74.36;101354.16;4973719;28;20054;-84
2022/07/26 04:40:44;;;;;;;16.15;4.68;;;;;;;18.51;75.17;101340.97;4972487;28;20438;-83
2022/07/26 04:43:09;;;;;;;14.57;4.35;;;;;;;18.47;74.93;101341.94;4973741;28;20360;-84
2022/07/26 04:45:35;;;;;;;15.15;4.72;;;;;;;18.51;75.14;101346.34;4976320;28;20080;-84
2022/07/26 04:48:00;;;;;;;13.20;4.45;;;;;;;18.55;74.70;101326.66;4977400;28;20039;-83
2022/07/26 04:50:28;;;;;;;11.75;4.15;;;;;;;18.69;74.44;101358.56;4976402;28;20034;-84
2022/07/26 04:52:54;;;;;;;21.10;4.63;;;;;;;18.74;74.30;101356.72;4977185;28;20042;-84
2022/07/26 04:55:20;;;;;;;13.63;4.30;;;;;;;18.66;74.37;101335.38;4977153;28;20039;-84
2022/07/26 04:57:47;;;;;;;16.60;4.25;;;;;;;18.75;73.94;101353.16;4977280;28;20035;-85
2022/07/26 05:00:15;;;;;;;16.67;5.00;;;;;;;18.80;74.07;101361.09;4976052;28;20026;-85
2022/07/26 05:02:41;;;;;;;15.95;4.60;;;;;;;18.69;74.17;101351.44;4977184;28;20408;-85
2022/07/26 05:05:07;;;;;;;14.95;4.53;;;;;;;18.79;73.88;101370.06;4975902;28;20041;-83
2022/07/26 05:07:53;;;;;;;15.00;5.18;;;;;;;18.76;73.75;101355.81;4977439;28;20030;-86
2022/07/26 05:10:20;;;;;;;17.88;5.13;;;;;;;18.77;73.72;101352.22;4977162;28;20038;-86
2022/07/26 05:12:47;;;;;;;14.65;4.43;;;;;;;18.86;73.59;101361.03;4975684;28;20470;-88
2022/07/26 05:15:13;;;;;;;18.08;4.78;;;;;;;18.81;73.97;101347.72;4977293;28;20040;-87
2022/07/26 05:17:39;;;;;;;18.90;4.45;;;;;;;19.02;72.72;101362.56;4976846;28;20027;-86
2022/07/26 05:20:09;;;;;;;16.23;4.68;;;;;;;19.17;72.80;101378.38;4976802;28;20034;-86
2022/07/26 05:22:35;;;;;;;19.67;4.80;;;;;;;19.18;73.16;101371.22;4976624;28;20027;-83
2022/07/26 05:25:03;;;;;;;14.23;5.03;;;;;;;19.30;73.08;101384.41;4959624;28;20123;-83
2022/07/26 05:27:28;;;;;;;15.13;5.00;;;;;;;19.45;72.32;101381.50;4976942;28;20042;-82
2022/07/26 05:29:54;;;;;;;15.10;4.80;;;;;;;19.55;71.60;101382.22;4976788;28;20026;-83
2022/07/26 05:32:20;;;;;;;14.80;4.70;;;;;;;19.56;70.90;101369.69;4975924;28;20375;-82
2022/07/26 05:34:46;;;;;;;17.10;4.75;;;;;;;19.77;71.40;101394.34;4976813;28;20023;-85
2022/07/26 05:37:11;;;;;;;14.23;4.72;;;;;;;19.84;70.72;101389.75;4976634;28;20031;-83
2022/07/26 05:39:37;;;;;;;16.85;5.00;;;;;;;19.84;70.98;101378.16;4975425;28;20491;-83
2022/07/26 05:42:02;;;;;;;13.90;4.90;;;;;;;19.96;70.07;101388.66;4975802;28;20058;-83
2022/07/26 05:44:27;;;;;;;13.32;4.32;;;;;;;20.09;69.14;101389.28;4976683;28;20352;-83
2022/07/26 05:46:53;;;;;;;17.10;5.10;;;;;;;19.98;69.40;101370.72;4958831;28;20097;-83
2022/07/26 05:49:19;;;;;;;11.40;4.70;;;;;;;20.13;69.02;101394.56;4975427;28;20344;-84
2022/07/26 05:51:44;;;;;;;13.63;4.95;;;;;;;20.27;68.48;101396.97;4976072;28;20447;-83
2022/07/26 05:54:09;;;;;;;16.88;5.50;;;;;;;20.45;68.57;101410.00;4959442;28;20031;-83
2022/07/26 05:56:35;;;;;;;16.83;4.32;;;;;;;20.48;68.09;101393.84;4957590;28;20042;-83
2022/07/26 05:59:00;;;;;;;16.08;4.60;;;;;;;20.56;67.60;101388.31;4976373;28;20035;-83
2022/07/26 06:01:28;;;;;;;15.20;5.00;;;;;;;20.68;66.85;101395.22;4974786;28;20085;-83
2022/07/26 06:03:53;;;;;;;17.52;5.10;;;;;;;20.74;66.76;101409.41;4974822;28;20035;-83
2022/07/26 06:06:19;;;;;;;13.25;4.35;;;;;;;20.74;66.49;101416.56;4974909;28;20035;-83
2022/07/26 06:08:44;;;;;;;15.32;4.97;;;;;;;20.79;66.46;101417.34;4975788;28;20035;-83
2022/07/26 06:11:09;;;;;;;12.55;4.85;;;;;;;20.94;66.03;101413.41;4976222;28;20072;-83
2022/07/26 06:13:35;;;;;;;13.88;5.05;;;;;;;20.93;65.77;101403.59;4976044;28;20375;-83
2022/07/26 06:16:00;;;;;;;12.68;4.55;;;;;;;21.09;65.41;101409.50;4976287;28;20456;-83
2022/07/26 06:18:25;;;;;;;16.08;5.20;;;;;;;21.16;64.97;101403.94;4974429;28;20034;-83
2022/07/26 06:20:51;;;;;;;14.50;4.85;;;;;;;21.21;64.20;101391.28;4975711;28;20035;-83
2022/07/26 06:23:16;;;;;;;17.73;4.80;;;;;;;21.40;63.18;101407.84;4975622;28;20383;-83
2022/07/26 06:25:42;;;;;;;11.98;4.55;;;;;;;21.51;63.02;101415.66;4975908;28;20026;-83
2022/07/26 06:28:09;;;;;;;12.20;4.43;;;;;;;21.71;62.93;101417.81;4975611;28;20038;-83
2022/07/26 06:30:36;;;;;;;12.13;4.50;;;;;;;21.84;62.82;101418.38;4976060;28;20053;-83
2022/07/26 06:33:02;;;;;;;10.90;4.38;;;;;;;22.00;61.46;101419.72;4974418;28;20375;-83
2022/07/26 06:35:30;;;;;;;14.77;4.32;;;;;;;21.84;60.58;101413.91;4975399;28;20025;-83
2022/07/26 06:37:57;;;;;;;9.63;4.28;;;;;;;21.84;61.17;101415.69;4975636;28;20447;-83
2022/07/26 06:40:23;;;;;;;11.70;4.25;;;;;;;22.00;61.12;101430.50;4975628;28;20431;-83
2022/07/26 06:42:48;;;;;;;14.75;4.50;;;;;;;22.14;61.14;101420.28;4974454;28;20049;-83
2022/07/26 06:45:14;;;;;;;16.77;4.13;;;;;;;22.31;59.55;101426.97;4974027;28;20035;-83
2022/07/26 06:47:39;;;;;;;12.25;4.00;;;;;;;22.43;59.01;101427.50;4975118;28;20552;-83
2022/07/26 06:50:05;;;;;;;13.15;3.88;;;;;;;22.53;58.95;101430.84;4974208;28;20039;-84
2022/07/26 06:52:32;;;;;;;13.25;4.20;;;;;;;22.69;57.92;101436.63;4974892;28;20030;-84
2022/07/26 06:54:58;;;;;;;10.48;3.75;;;;;;;22.79;57.05;101430.06;4958132;28;20133;-83
2022/07/26 06:57:24;;;;;;;15.52;3.85;;;;;;;22.87;57.25;101429.78;4973691;28;20113;-83
2022/07/26 06:59:50;;;;;;;13.55;3.72;;;;;;;22.79;56.84;101434.56;4975198;28;20582;-83
2022/07/26 07:02:15;;;;;;;10.38;3.47;;;;;;;22.68;57.20;101438.44;4974974;28;20034;-83
2022/07/26 07:04:40;;;;;;;10.57;4.10;;;;;;;22.55;57.46;101423.56;4975133;28;20069;-83
2022/07/26 07:07:07;;;;;;;10.43;3.33;;;;;;;22.66;56.86;101442.13;4974556;28;20035;-83
2022/07/26 07:09:33;;;;;;;8.43;3.60;;;;;;;22.66;57.25;101456.47;4974811;28;20386;-83
2022/07/26 07:12:01;;;;;;;10.45;3.95;;;;;;;22.44;58.10;101441.84;4974936;28;20026;-83
2022/07/26 07:14:26;;;;;;;7.80;3.55;;;;;;;22.30;58.19;101447.63;4974619;28;20030;-83
2022/07/26 07:16:52;;;;;;;15.90;3.72;;;;;;;22.33;57.35;101452.06;4974831;28;20479;-83
2022/07/26 07:19:17;;;;;;;9.98;3.30;;;;;;;22.25;57.28;101453.16;4974476;28;20034;-83
2022/07/26 07:21:42;;;;;;;9.95;3.03;;;;;;;22.11;57.34;101458.00;4974713;28;20412;-83
2022/07/26 07:24:08;;;;;;;10.20;3.10;;;;;;;21.89;57.37;101452.31;4975129;28;20042;-84
2022/07/26 07:26:33;;;;;;;10.40;2.85;;;;;;;21.82;58.15;101453.41;4973488;28;20042;-85
2022/07/26 07:28:59;;;;;;;8.73;3.10;;;;;;;21.74;58.40;101448.22;4973216;28;20468;-83
2022/07/26 07:31:25;;;;;;;7.53;2.95;;;;;;;21.78;59.21;101454.41;4973271;28;20122;-83
2022/07/26 07:33:50;;;;;;;7.22;2.80;;;;;;;21.68;57.64;101450.19;4974400;28;20031;-84
2022/07/26 07:36:15;;;;;;;10.50;3.03;;;;;;;21.69;58.61;101450.16;4973269;28;20031;-83
2022/07/26 07:38:43;;;;;;;9.60;2.85;;;;;;;22.06;58.29;101470.72;4974672;28;20034;-83
2022/07/26 07:41:09;;;;;;;6.57;2.75;;;;;;;22.30;57.19;101458.41;4974461;28;20130;-84
2022/07/26 07:43:34;;;;;;;9.45;2.80;;;;;;;22.60;55.83;101461.16;4973298;28;20267;-83
2022/07/26 07:45:59;;;;;;;12.05;2.90;;;;;;;22.79;55.09;101470.47;4957250;28;20065;-83
2022/07/26 07:48:25;;;;;;;10.25;2.80;;;;;;;22.79;54.87;101470.47;4974022;28;20479;-83
2022/07/26 07:50:50;;;;;;;7.28;2.45;;;;;;;22.76;54.32;101470.56;4974064;28;20134;-83
2022/07/26 07:53:16;;;;;;;12.23;3.00;;;;;;;22.70;55.00;101473.44;4972963;28;20030;-83
2022/07/26 07:55:42;;;;;;;11.07;2.90;;;;;;;22.73;56.17;101470.63;4974288;28;20081;-83
2022/07/26 07:58:07;;;;;;;8.13;2.75;;;;;;;22.89;55.52;101455.78;4974042;28;20471;-84
2022/07/26 08:00:32;;;;;;;10.15;2.80;;;;;;;22.83;54.84;101460.47;4973010;28;20494;-83
2022/07/26 08:02:58;;;;;;;7.60;2.63;;;;;;;23.00;54.72;101474.38;4973824;28;20023;-84
2022/07/26 08:05:23;;;;;;;9.23;2.80;;;;;;;23.28;54.30;101482.44;4974342;28;20035;-84
2022/07/26 08:07:49;;;;;;;7.47;3.67;;;;;;;23.56;52.87;101471.66;4972847;28;20131;-83
2022/07/26 08:10:15;;;;;;;7.32;3.30;;;;;;;23.85;52.05;101481.47;4972978;28;20135;-84
2022/07/26 08:12:41;;;;;;;11.02;3.60;;;;;;;23.77;52.35;101469.19;4974174;28;20031;-83
2022/07/26 08:15:07;;;;;;;7.75;2.92;;;;;;;23.33;54.39;101456.22;4972909;28;20038;-83
2022/07/26 08:17:32;;;;;;;6.65;2.30;;;;;;;23.07;56.25;101496.59;4973689;28;20030;-84
2022/07/26 08:19:58;;;;;;;3.35;1.73;;;;;;;22.64;58.40;101492.47;4975995;28;20031;-84
2022/07/26 08:22:23;;;;;;;3.22;1.70;;;;;;;22.40;59.45;101494.06;4976539;28;20378;-84
2022/07/26 08:24:48;;;;;;;2.95;1.50;;;;;;;22.12;60.31;101499.28;4977884;28;20037;-84
2022/07/26 08:27:17;;;;;;;3.78;1.48;;;;;;;22.09;60.43;101508.31;4978027;28;20042;-84
2022/07/26 08:29:42;;;;;;;3.78;1.42;;;;;;;22.03;60.54;101505.78;4976448;28;20037;-84
2022/07/26 08:32:08;;;;;;;3.42;1.40;;;;;;;22.05;59.79;101503.91;4944447;28;20023;-84
2022/07/26 08:34:33;;;;;;;2.13;1.10;;;;;;;22.14;59.17;101509.13;4977836;28;20113;-84
2022/07/26 08:36:59;;;;;;;3.90;1.30;;;;;;;22.21;58.34;101504.44;4976615;28;20081;-84
2022/07/26 08:39:24;;;;;;;2.28;1.25;;;;;;;22.25;58.46;101508.81;4977531;28;20026;-83
2022/07/26 08:41:49;;;;;;;2.42;1.05;;;;;;;22.52;59.16;101519.75;4976817;28;20066;-84
2022/07/26 08:44:15;;;;;;;2.38;1.02;;;;;;;22.81;57.93;101527.88;4977790;28;20034;-84
2022/07/26 08:46:41;;;;;;;2.78;1.30;;;;;;;23.07;56.89;101497.47;4959957;28;20058;-83
2022/07/26 08:49:11;;;;;;;4.47;1.10;;;;;;;23.37;55.75;101530.69;4978124;28;20039;-83
2022/07/26 08:51:39;;;;;;;2.28;1.15;;;;;;;23.30;56.28;101528.22;4977305;28;20420;-84
2022/07/26 08:54:05;;;;;;;2.05;1.50;;;;;;;23.06;56.50;101530.78;4977529;28;20114;-83
2022/07/26 08:56:33;;;;;;;8.00;1.20;;;;;;;22.96;57.40;101534.69;4976241;28;20058;-83
2022/07/26 08:59:05;;;;;;;2.40;1.33;;;;;;;23.00;56.68;101533.66;4977381;28;20116;-83
2022/07/26 09:01:30;;;;;;;;;;;;;;;23.32;56.63;101542.56;4977640;28;20080;-83
2022/07/26 09:03:56;;;;;;;2.63;1.33;;;;;;;23.58;56.48;101539.03;4960023;28;20005;-84
2022/07/26 09:06:22;;;;;;;2.22;1.20;;;;;;;24.19;55.03;101528.91;4975842;28;20743;-83
2022/07/26 09:08:52;;;;;;;5.07;1.55;;;;;;;24.35;53.80;101530.13;4977111;28;20034;-84
2022/07/26 09:11:23;;;;;;;3.20;1.10;;;;;;;24.43;53.23;101551.53;4975745;28;20446;-83
2022/07/26 09:14:03;;;;;;;2.95;1.40;;;;;;;24.38;53.65;101548.09;4976981;28;20034;-83
2022/07/26 09:16:29;;;;;;;3.10;1.70;;;;;;;24.36;52.41;101555.34;4977141;28;20018;-83
2022/07/26 09:19:14;;;;;;;4.50;1.38;;;;;;;24.48;52.92;101550.41;4976970;28;20058;-83
2022/07/26 09:21:40;;;;;;;4.95;1.73;;;;;;;24.27;52.82;101550.25;4977370;28;20025;-83
2022/07/26 09:24:06;;;;;;;2.17;1.50;;;;;;;24.50;51.82;101553.06;4977793;28;20027;-83
2022/07/26 09:26:31;;;;;;;6.30;2.00;;;;;;;24.60;51.62;101564.44;4975962;28;20030;-83
2022/07/26 09:29:07;;;;;;;5.80;1.77;;;;;;;24.58;51.57;101561.78;4977344;28;20053;-83
2022/07/26 09:31:33;;;;;;;6.88;1.98;;;;;;;24.39;50.34;101568.78;4976984;28;20026;-83
2022/07/26 09:33:58;;;;;;;6.13;1.90;;;;;;;24.24;50.32;101551.25;4976839;28;20026;-83
2022/07/26 09:36:25;;;;;;;4.50;2.00;;;;;;;24.40;51.02;101570.53;4976823;28;20055;-83
2022/07/26 09:38:53;;;;;;;4.57;2.00;;;;;;;24.22;50.79;101551.31;4976250;28;20035;-84
2022/07/26 09:41:22;;;;;;;6.00;1.80;;;;;;;24.29;51.23;101568.19;4976939;28;20042;-83
2022/07/26 09:43:49;;;;;;;5.82;2.00;;;;;;;24.47;51.08;101570.25;4976346;28;20085;-84
2022/07/26 09:46:15;;;;;;;5.13;1.90;;;;;;;24.91;51.04;101564.16;4976611;28;20126;-83
2022/07/26 09:48:41;;;;;;;6.15;2.00;;;;;;;25.07;49.01;101565.34;4974946;28;20086;-83
2022/07/26 09:51:07;;;;;;;6.57;2.25;;;;;;;25.32;49.13;101568.03;4974744;28;20109;-83
2022/07/26 09:53:45;;;;;;;4.18;1.85;;;;;;;25.38;48.56;101562.38;4976514;28;20449;-84
2022/07/26 09:56:11;;;;;;;7.82;1.98;;;;;;;25.26;49.69;101573.66;4976228;28;20027;-83
2022/07/26 09:58:37;;;;;;;6.40;2.10;;;;;;;24.94;49.68;101562.25;4976398;28;20448;-83
2022/07/26 10:01:05;;;;;;;3.75;1.65;;;;;;;24.79;50.25;101570.03;4974829;28;20039;-83
2022/07/26 10:03:31;;;;;;;9.57;2.05;;;;;;;24.82;50.53;101573.50;4976351;28;20027;-84
2022/07/26 10:05:58;;;;;;;5.65;1.90;;;;;;;24.90;50.07;101582.22;4975984;28;20027;-84
2022/07/26 10:08:24;;;;;;;4.93;1.50;;;;;;;25.11;48.02;101587.81;4976299;28;20030;-83
2022/07/26 10:10:59;;;;;;;4.38;1.73;;;;;;;25.23;47.40;101582.81;4958839;28;20033;-85
2022/07/26 10:13:26;;;;;;;2.38;1.35;;;;;;;25.52;46.18;101585.28;4975115;28;20030;-84
2022/07/26 10:15:52;;;;;;;2.80;1.40;;;;;;;25.64;47.39;101582.09;4976210;28;20023;-84
2022/07/26 10:18:35;;;;;;;2.35;1.20;;;;;;;25.71;47.53;101597.16;4975870;28;20027;-83
2022/07/26 10:21:17;;;;;;;1.52;1.00;;;;;;;25.70;46.15;101590.00;4975827;28;20085;-84
2022/07/26 10:23:45;;;;;;;1.75;1.38;;;;;;;25.55;45.74;101590.59;4975977;28;20027;-83
2022/07/26 10:26:32;;;;;;;4.07;1.67;;;;;;;25.66;46.12;101586.53;4975972;28;20027;-84
2022/07/26 10:29:15;;;;;;;3.05;1.30;;;;;;;26.25;45.11;101587.69;4975578;28;20022;-84
2022/07/26 10:31:49;;;;;;;3.20;1.45;;;;;;;26.48;44.63;101592.19;4975833;28;20038;-84
2022/07/26 10:34:38;;;;;;;2.95;1.30;;;;;;;26.63;43.95;101601.44;4975718;28;20447;-83
2022/07/26 10:37:09;;;;;;;2.55;1.30;;;;;;;26.38;42.95;101598.88;4965784;28;20039;-84
2022/07/26 10:39:36;;;;;;;4.53;1.27;;;;;;;26.29;42.46;101592.03;4975558;28;20363;-83
2022/07/26 10:42:03;;;;;;;2.35;0.85;;;;;;;26.29;42.83;101604.72;4973630;28;20600;-83
2022/07/26 10:44:30;;;;;;;3.65;1.40;;;;;;;26.10;41.07;101610.91;4975550;28;20026;-83
2022/07/26 10:47:08;;;;;;;3.55;1.30;;;;;;;26.01;42.00;101613.13;4975263;28;20038;-84
2022/07/26 10:49:42;;;;;;;2.38;1.42;;;;;;;25.71;42.17;101594.44;4975269;28;20168;-84
2022/07/26 10:52:12;;;;;;;2.45;1.27;;;;;;;25.65;42.96;101616.34;4975149;28;20084;-83
2022/07/26 10:54:55;;;;;;;4.22;1.52;;;;;;;25.68;43.09;101605.41;4975370;28;20030;-83
2022/07/26 10:57:22;;;;;;;2.05;0.98;;;;;;;25.54;43.36;101615.91;4975201;28;20023;-83
2022/07/26 10:59:47;;;;;;;3.95;1.40;;;;;;;25.45;44.13;101619.84;4973762;28;20027;-83
2022/07/26 11:02:20;;;;;;;3.90;1.38;;;;;;;25.38;43.62;101608.38;4973706;28;20081;-83
2022/07/26 11:04:47;;;;;;;2.78;1.30;;;;;;;25.34;44.12;101625.66;4975100;28;20057;-83
2022/07/26 11:07:13;;;;;;;2.35;1.45;;;;;;;25.09;45.72;101623.00;4973853;28;20034;-83
2022/07/26 11:09:38;;;;;;;3.15;1.52;;;;;;;25.09;45.46;101625.69;4973586;28;20189;-84
2022/07/26 11:12:17;;;;;;;4.50;1.48;;;;;;;25.08;45.37;101626.66;4974909;28;20023;-83
2022/07/26 11:14:43;;;;;;;3.60;1.40;;;;;;;25.03;46.39;101641.25;4974597;28;20027;-84
2022/07/26 11:17:29;;;;;;;2.53;1.27;;;;;;;24.93;46.42;101613.69;4975020;28;20062;-84
2022/07/26 11:19:55;;;;;;;5.50;1.60;;;;;;;25.08;46.44;101645.56;4975012;28;20023;-84